createdAt,value
2022-08-18T00:00:11.019Z,100
2022-08-18T00:01:08.822Z,100
2022-08-18T00:02:09.014Z,100
2022-08-18T00:03:20.719Z,100
2022-08-18T00:04:24.317Z,100
2022-08-18T00:05:08.954Z,100
2022-08-18T00:06:08.856Z,100
2022-08-18T00:07:08.861Z,100
2022-08-18T00:08:08.865Z,100
2022-08-18T00:09:08.877Z,100
2022-08-18T00:10:18.628Z,100
2022-08-18T00:11:08.913Z,100
2022-08-18T00:12:08.897Z,100
2022-08-18T00:13:08.898Z,100
2022-08-18T00:14:08.907Z,100
2022-08-18T00:15:08.808Z,100
2022-08-18T00:16:08.822Z,100
2022-08-18T00:17:08.822Z,100
2022-08-18T00:18:08.823Z,100
2022-08-18T00:19:09.608Z,100
2022-08-18T00:20:08.950Z,100
2022-08-18T00:21:08.848Z,100
2022-08-18T00:22:08.852Z,100
2022-08-18T00:23:08.865Z,100
2022-08-18T00:24:08.807Z,100
2022-08-18T00:25:08.877Z,100
2022-08-18T00:26:08.900Z,100
2022-08-18T00:27:08.889Z,100
2022-08-18T00:28:08.893Z,100
2022-08-18T00:29:08.807Z,100
2022-08-18T00:30:08.802Z,100
2022-08-18T00:31:08.921Z,100
2022-08-18T00:32:08.910Z,100
2022-08-18T00:33:08.929Z,100
2022-08-18T00:34:08.935Z,100
2022-08-18T00:35:08.828Z,100
2022-08-18T00:36:08.847Z,100
2022-08-18T00:37:08.852Z,100
2022-08-18T00:38:08.871Z,100
2022-08-18T00:39:08.865Z,100
2022-08-18T00:40:09.057Z,100
2022-08-18T00:41:08.881Z,100
2022-08-18T00:42:08.809Z,100
2022-08-18T00:43:08.818Z,100
2022-08-18T00:44:08.844Z,100
2022-08-18T00:45:08.890Z,100
2022-08-18T00:46:08.906Z,100
2022-08-18T00:47:08.919Z,100
2022-08-18T00:48:08.921Z,100
2022-08-18T00:49:08.816Z,100
2022-08-18T00:50:08.825Z,100
2022-08-18T00:51:08.842Z,100
2022-08-18T00:52:08.841Z,100
2022-08-18T00:53:08.849Z,100
2022-08-18T00:54:08.953Z,100
2022-08-18T00:55:08.961Z,100
2022-08-18T00:56:08.803Z,100
2022-08-18T00:57:08.819Z,100
2022-08-18T00:58:08.875Z,100
2022-08-18T00:59:08.903Z,100
2022-08-18T01:00:08.890Z,100
2022-08-18T01:01:08.997Z,100
2022-08-18T01:02:08.907Z,100
2022-08-18T01:03:08.925Z,100
2022-08-18T01:04:08.920Z,100
2022-08-18T01:05:08.927Z,100
2022-08-18T01:06:08.832Z,100
2022-08-18T01:07:08.831Z,100
2022-08-18T01:08:08.856Z,100
2022-08-18T01:09:08.884Z,100
2022-08-18T01:10:08.860Z,100
2022-08-18T01:11:08.865Z,100
2022-08-18T01:12:45.949Z,100
2022-08-18T01:13:08.882Z,100
2022-08-18T01:14:08.884Z,100
2022-08-18T01:15:08.885Z,100
2022-08-18T01:16:08.896Z,100
2022-08-18T01:17:08.916Z,100
2022-08-18T01:18:08.906Z,100
2022-08-18T01:19:08.912Z,100
2022-08-18T01:20:08.935Z,100
2022-08-18T01:21:08.832Z,100
2022-08-18T01:22:08.869Z,100
2022-08-18T01:23:08.931Z,100
2022-08-18T01:24:08.838Z,100
2022-08-18T01:25:08.870Z,100
2022-08-18T01:26:08.964Z,100
2022-08-18T01:27:08.858Z,100
2022-08-18T01:28:08.867Z,100
2022-08-18T01:29:08.870Z,100
2022-08-18T01:30:08.878Z,100
2022-08-18T01:31:08.898Z,100
2022-08-18T01:32:08.836Z,100
2022-08-18T01:33:08.811Z,100
2022-08-18T01:34:08.907Z,100
2022-08-18T01:35:08.930Z,100
2022-08-18T01:36:08.866Z,100
2022-08-18T01:37:08.931Z,100
2022-08-18T01:38:08.833Z,100
2022-08-18T01:39:08.844Z,100
2022-08-18T01:41:22.241Z,100
2022-08-18T01:41:28.929Z,100
2022-08-18T01:42:08.970Z,100
2022-08-18T01:43:08.967Z,100
2022-08-18T01:44:08.978Z,100
2022-08-18T01:45:08.874Z,100
2022-08-18T01:46:08.879Z,100
2022-08-18T01:47:08.887Z,100
2022-08-18T01:48:08.825Z,100
2022-08-18T01:49:08.827Z,100
2022-08-18T01:50:08.872Z,100
2022-08-18T01:51:08.861Z,100
2022-08-18T01:52:08.823Z,100
2022-08-18T01:53:08.810Z,100
2022-08-18T01:54:08.818Z,100
2022-08-18T01:55:08.835Z,100
2022-08-18T01:56:08.816Z,100
2022-08-18T01:57:08.877Z,100
2022-08-18T01:58:08.867Z,100
2022-08-18T01:59:08.822Z,100
2022-08-18T02:00:08.812Z,100
2022-08-18T02:01:08.842Z,100
2022-08-18T02:02:08.922Z,100
2022-08-18T02:03:08.819Z,100
2022-08-18T02:04:33.842Z,100
2022-08-18T02:05:08.879Z,100
2022-08-18T02:06:08.818Z,100
2022-08-18T02:07:08.844Z,100
2022-08-18T02:08:08.883Z,100
2022-08-18T02:09:08.825Z,100
2022-08-18T02:10:11.970Z,100
2022-08-18T02:11:08.871Z,100
2022-08-18T02:12:08.870Z,100
2022-08-18T02:13:08.820Z,100
2022-08-18T02:14:08.818Z,100
2022-08-18T02:15:08.818Z,100
2022-08-18T02:16:08.816Z,100
2022-08-18T02:17:08.834Z,100
2022-08-18T02:18:08.915Z,100
2022-08-18T02:19:08.858Z,100
2022-08-18T02:20:08.833Z,100
2022-08-18T02:21:10.312Z,100
2022-08-18T02:22:08.824Z,100
2022-08-18T02:23:08.817Z,100
2022-08-18T02:24:08.841Z,100
2022-08-18T02:25:08.910Z,100
2022-08-18T02:26:08.875Z,100
2022-08-18T02:27:08.840Z,100
2022-08-18T02:28:08.829Z,100
2022-08-18T02:29:08.827Z,100
2022-08-18T02:30:08.834Z,100
2022-08-18T02:31:08.851Z,100
2022-08-18T02:32:08.866Z,100
2022-08-18T02:33:08.881Z,100
2022-08-18T02:34:08.847Z,100
2022-08-18T02:35:10.293Z,100
2022-08-18T02:36:08.836Z,100
2022-08-18T02:37:14.403Z,100
2022-08-18T02:38:08.840Z,100
2022-08-18T02:39:08.881Z,100
2022-08-18T02:40:08.945Z,100
2022-08-18T02:41:08.837Z,100
2022-08-18T02:42:08.837Z,100
2022-08-18T02:43:08.833Z,100
2022-08-18T02:44:08.827Z,100
2022-08-18T02:45:08.823Z,100
2022-08-18T02:46:08.888Z,100
2022-08-18T02:47:08.877Z,100
2022-08-18T02:48:08.827Z,100
2022-08-18T02:49:08.827Z,100
2022-08-18T02:50:08.855Z,100
2022-08-18T02:51:08.825Z,100
2022-08-18T02:52:08.874Z,100
2022-08-18T02:53:08.879Z,100
2022-08-18T02:54:08.881Z,100
2022-08-18T02:55:08.842Z,100
2022-08-18T02:56:08.838Z,100
2022-08-18T02:57:08.837Z,100
2022-08-18T02:58:08.849Z,100
2022-08-18T02:59:08.846Z,100
2022-08-18T03:00:08.888Z,100
2022-08-18T03:01:08.922Z,100
2022-08-18T03:02:08.827Z,100
2022-08-18T03:03:08.831Z,100
2022-08-18T03:04:08.832Z,100
2022-08-18T03:05:08.847Z,100
2022-08-18T03:06:08.851Z,100
2022-08-18T03:07:08.873Z,100
2022-08-18T03:08:08.881Z,100
2022-08-18T03:09:08.841Z,100
2022-08-18T03:10:31.693Z,100
2022-08-18T03:11:08.838Z,100
2022-08-18T03:12:08.847Z,100
2022-08-18T03:13:08.835Z,100
2022-08-18T03:14:11.281Z,100
2022-08-18T03:15:08.905Z,100
2022-08-18T03:16:08.945Z,100
2022-08-18T03:17:08.855Z,100
2022-08-18T03:18:08.977Z,100
2022-08-18T03:19:08.867Z,100
2022-08-18T03:20:08.883Z,100
2022-08-18T03:21:08.889Z,100
2022-08-18T03:22:28.370Z,100
2022-08-18T03:23:09.794Z,100
2022-08-18T03:24:09.220Z,100
2022-08-18T03:25:08.893Z,100
2022-08-18T03:26:08.900Z,100
2022-08-18T03:27:08.917Z,100
2022-08-18T03:28:08.914Z,100
2022-08-18T03:29:08.929Z,100
2022-08-18T03:30:11.483Z,100
2022-08-18T03:31:08.938Z,100
2022-08-18T03:32:08.949Z,100
2022-08-18T03:33:08.849Z,100
2022-08-18T03:34:08.844Z,100
2022-08-18T03:35:08.969Z,100
2022-08-18T03:36:08.974Z,100
2022-08-18T03:37:08.845Z,100
2022-08-18T03:38:08.886Z,100
2022-08-18T03:39:08.892Z,100
2022-08-18T03:40:09.003Z,100
2022-08-18T03:41:08.896Z,100
2022-08-18T03:42:08.913Z,100
2022-08-18T03:43:23.603Z,100
2022-08-18T03:44:08.917Z,100
2022-08-18T03:45:13.427Z,100
2022-08-18T03:46:08.925Z,100
2022-08-18T03:47:08.843Z,100
2022-08-18T03:48:08.855Z,100
2022-08-18T03:49:08.955Z,100
2022-08-18T03:50:08.961Z,100
2022-08-18T03:51:08.871Z,100
2022-08-18T03:52:08.888Z,100
2022-08-18T03:53:08.885Z,100
2022-08-18T03:54:08.902Z,100
2022-08-18T03:55:08.901Z,100
2022-08-18T03:56:09.022Z,100
2022-08-18T03:57:08.908Z,100
2022-08-18T03:58:08.904Z,100
2022-08-18T03:59:08.934Z,100
2022-08-18T04:00:09.024Z,100
2022-08-18T04:01:08.938Z,100
2022-08-18T04:02:08.852Z,100
2022-08-18T04:03:08.935Z,100
2022-08-18T04:04:08.885Z,100
2022-08-18T04:05:08.955Z,100
2022-08-18T04:06:12.573Z,100
2022-08-18T04:07:08.866Z,100
2022-08-18T04:08:08.871Z,100
2022-08-18T04:09:08.872Z,100
2022-08-18T04:10:19.102Z,100
2022-08-18T04:11:08.982Z,100
2022-08-18T04:12:08.890Z,100
2022-08-18T04:13:08.892Z,100
2022-08-18T04:14:08.848Z,100
2022-08-18T04:15:08.848Z,100
2022-08-18T04:16:08.845Z,100
2022-08-18T04:17:08.895Z,100
2022-08-18T04:18:09.271Z,100
2022-08-18T04:19:08.953Z,100
2022-08-18T04:20:08.973Z,100
2022-08-18T04:21:08.959Z,100
2022-08-18T04:22:08.959Z,100
2022-08-18T04:23:08.971Z,100
2022-08-18T04:24:08.966Z,100
2022-08-18T04:25:08.978Z,100
2022-08-18T04:26:08.905Z,100
2022-08-18T04:27:08.851Z,100
2022-08-18T04:28:08.841Z,100
2022-08-18T04:29:08.914Z,100
2022-08-18T04:30:08.928Z,100
2022-08-18T04:31:09.208Z,100
2022-08-18T04:32:08.920Z,100
2022-08-18T04:33:08.932Z,100
2022-08-18T04:34:08.931Z,100
2022-08-18T04:35:12.378Z,100
2022-08-18T04:36:08.947Z,100
2022-08-18T04:37:08.952Z,100
2022-08-18T04:38:08.963Z,100
2022-08-18T04:39:08.974Z,100
2022-08-18T04:40:08.920Z,100
2022-08-18T04:41:08.851Z,100
2022-08-18T04:42:08.881Z,100
2022-08-18T04:43:08.900Z,100
2022-08-18T04:44:09.307Z,100
2022-08-18T04:45:08.898Z,100
2022-08-18T04:46:08.895Z,100
2022-08-18T04:47:08.913Z,100
2022-08-18T04:48:08.911Z,100
2022-08-18T04:49:08.953Z,100
2022-08-18T04:50:08.933Z,100
2022-08-18T04:51:08.940Z,100
2022-08-18T04:52:37.208Z,100
2022-08-18T04:53:08.873Z,100
2022-08-18T04:54:08.859Z,100
2022-08-18T04:55:08.958Z,100
2022-08-18T04:56:08.858Z,100
2022-08-18T04:57:08.890Z,100
2022-08-18T04:58:08.988Z,100
2022-08-18T04:59:09.034Z,100
2022-08-18T05:00:08.901Z,100
2022-08-18T05:01:08.997Z,100
2022-08-18T05:02:12.765Z,100
2022-08-18T05:03:08.934Z,100
2022-08-18T05:04:08.936Z,100
2022-08-18T05:05:08.907Z,100
2022-08-18T05:06:08.944Z,100
2022-08-18T05:07:08.858Z,100
2022-08-18T05:08:08.856Z,100
2022-08-18T05:09:08.969Z,100
2022-08-18T05:10:08.963Z,100
2022-08-18T05:11:08.963Z,100
2022-08-18T05:12:08.983Z,100
2022-08-18T05:13:08.894Z,100
2022-08-18T05:14:08.900Z,100
2022-08-18T05:15:08.894Z,100
2022-08-18T05:16:11.591Z,100
2022-08-18T05:17:08.866Z,100
2022-08-18T05:18:08.869Z,100
2022-08-18T05:19:08.935Z,100
2022-08-18T05:20:08.916Z,100
2022-08-18T05:21:08.859Z,100
2022-08-18T05:22:08.861Z,100
2022-08-18T05:23:08.948Z,100
2022-08-18T05:24:08.969Z,100
2022-08-18T05:25:08.959Z,100
2022-08-18T05:26:08.972Z,100
2022-08-18T05:27:08.978Z,100
2022-08-18T05:28:08.983Z,100
2022-08-18T05:29:18.373Z,100
2022-08-18T05:30:08.882Z,100
2022-08-18T05:31:13.554Z,100
2022-08-18T05:32:09.685Z,100
2022-08-18T05:33:08.918Z,100
2022-08-18T05:34:08.919Z,100
2022-08-18T05:35:08.889Z,100
2022-08-18T05:36:08.919Z,100
2022-08-18T05:37:08.957Z,100
2022-08-18T05:38:08.876Z,100
2022-08-18T05:39:08.871Z,100
2022-08-18T05:40:11.671Z,100
2022-08-18T05:41:14.041Z,100
2022-08-18T05:42:08.861Z,100
2022-08-18T05:43:09.417Z,100
2022-08-18T05:44:08.982Z,100
2022-08-18T05:45:08.872Z,100
2022-08-18T05:46:08.883Z,100
2022-08-18T05:47:08.993Z,100
2022-08-18T05:48:09.065Z,100
2022-08-18T05:49:08.904Z,100
2022-08-18T05:50:08.907Z,100
2022-08-18T05:51:08.870Z,100
2022-08-18T05:52:08.919Z,100
2022-08-18T05:53:09.300Z,100
2022-08-18T05:54:08.904Z,100
2022-08-18T05:55:08.928Z,100
2022-08-18T05:56:08.951Z,100
2022-08-18T05:57:08.963Z,100
2022-08-18T05:58:08.968Z,100
2022-08-18T05:59:08.957Z,100
2022-08-18T06:00:09.001Z,100
2022-08-18T06:01:09.031Z,100
2022-08-18T06:02:08.879Z,100
2022-08-18T06:03:09.133Z,100
2022-08-18T06:04:08.925Z,100
2022-08-18T06:05:08.921Z,100
2022-08-18T06:06:08.924Z,100
2022-08-18T06:07:08.870Z,100
2022-08-18T06:08:08.937Z,100
2022-08-18T06:09:08.934Z,100
2022-08-18T06:10:08.940Z,100
2022-08-18T06:11:17.338Z,100
2022-08-18T06:12:08.971Z,100
2022-08-18T06:13:08.965Z,100
2022-08-18T06:14:08.958Z,100
2022-08-18T06:15:08.881Z,100
2022-08-18T06:16:08.885Z,100
2022-08-18T06:17:08.877Z,100
2022-08-18T06:18:08.896Z,100
2022-08-18T06:19:08.872Z,100
2022-08-18T06:20:08.896Z,100
2022-08-18T06:21:08.902Z,100
2022-08-18T06:22:08.906Z,100
2022-08-18T06:23:08.908Z,100
2022-08-18T06:24:08.920Z,100
2022-08-18T06:25:08.919Z,100
2022-08-18T06:26:08.931Z,100
2022-08-18T06:27:08.953Z,100
2022-08-18T06:28:08.869Z,100
2022-08-18T06:29:08.927Z,100
2022-08-18T06:30:08.954Z,100
2022-08-18T06:31:08.865Z,100
2022-08-18T06:32:08.873Z,100
2022-08-18T06:33:08.877Z,100
2022-08-18T06:34:08.870Z,100
2022-08-18T06:35:08.887Z,100
2022-08-18T06:36:08.892Z,100
2022-08-18T06:37:09.004Z,100
2022-08-18T06:38:08.906Z,100
2022-08-18T06:39:08.909Z,100
2022-08-18T06:40:08.998Z,100
2022-08-18T06:41:08.870Z,100
2022-08-18T06:42:08.939Z,100
2022-08-18T06:43:08.871Z,100
2022-08-18T06:44:08.886Z,100
2022-08-18T06:45:08.885Z,100
2022-08-18T06:46:08.966Z,100
2022-08-18T06:47:08.970Z,100
2022-08-18T06:48:15.737Z,100
2022-08-18T06:49:08.972Z,100
2022-08-18T06:50:08.885Z,100
2022-08-18T06:51:08.992Z,100
2022-08-18T06:52:08.896Z,100
2022-08-18T06:53:19.043Z,100
2022-08-18T06:54:08.873Z,100
2022-08-18T06:55:08.914Z,100
2022-08-18T06:56:08.872Z,100
2022-08-18T06:57:09.049Z,100
2022-08-18T06:58:08.938Z,100
2022-08-18T06:59:08.960Z,100
2022-08-18T07:00:08.943Z,100
2022-08-18T07:01:09.021Z,100
2022-08-18T07:02:08.869Z,100
2022-08-18T07:03:08.886Z,100
2022-08-18T07:04:08.974Z,100
2022-08-18T07:05:08.980Z,100
2022-08-18T07:06:08.880Z,100
2022-08-18T07:07:09.014Z,100
2022-08-18T07:08:08.882Z,100
2022-08-18T07:09:08.874Z,100
2022-08-18T07:10:08.902Z,100
2022-08-18T07:11:08.915Z,100
2022-08-18T07:12:08.926Z,100
2022-08-18T07:13:08.872Z,100
2022-08-18T07:14:16.625Z,100
2022-08-18T07:15:08.938Z,100
2022-08-18T07:16:08.944Z,100
2022-08-18T07:17:08.877Z,100
2022-08-18T07:18:08.967Z,100
2022-08-18T07:19:08.898Z,100
2022-08-18T07:20:08.979Z,100
2022-08-18T07:21:08.996Z,100
2022-08-18T07:22:08.882Z,100
2022-08-18T07:23:08.896Z,100
2022-08-18T07:24:24.250Z,100
2022-08-18T07:25:09.018Z,100
2022-08-18T07:26:08.951Z,100
2022-08-18T07:27:08.919Z,100
2022-08-18T07:28:08.914Z,100
2022-08-18T07:29:08.926Z,100
2022-08-18T07:30:08.892Z,100
2022-08-18T07:31:17.062Z,100
2022-08-18T07:32:12.607Z,100
2022-08-18T07:33:08.962Z,100
2022-08-18T07:34:08.889Z,100
2022-08-18T07:35:08.955Z,100
2022-08-18T07:36:08.870Z,100
2022-08-18T07:37:08.979Z,100
2022-08-18T07:38:24.860Z,100
2022-08-18T07:39:08.991Z,100
2022-08-18T07:40:09.080Z,100
2022-08-18T07:41:08.873Z,100
2022-08-18T07:42:08.909Z,100
2022-08-18T07:43:08.913Z,100
2022-08-18T07:44:13.530Z,100
2022-08-18T07:45:08.873Z,100
2022-08-18T07:46:08.937Z,100
2022-08-18T07:47:08.939Z,100
2022-08-18T07:48:27.283Z,100
2022-08-18T07:49:08.947Z,100
2022-08-18T07:50:26.971Z,100
2022-08-18T07:51:09.202Z,100
2022-08-18T07:52:14.630Z,100
2022-08-18T07:53:08.997Z,100
2022-08-18T07:54:20.069Z,100
2022-08-18T07:55:09.994Z,100
2022-08-18T07:56:09.071Z,100
2022-08-18T07:57:08.913Z,100
2022-08-18T07:58:08.906Z,100
2022-08-18T07:59:08.878Z,100
2022-08-18T08:00:10.495Z,100
2022-08-18T08:01:08.930Z,100
2022-08-18T08:02:08.884Z,100
2022-08-18T08:03:08.881Z,100
2022-08-18T08:04:08.897Z,100
2022-08-18T08:05:08.964Z,100
2022-08-18T08:06:09.198Z,100
2022-08-18T08:07:25.519Z,100
2022-08-18T08:08:08.967Z,100
2022-08-18T08:09:08.884Z,100
2022-08-18T08:10:08.983Z,100
2022-08-18T08:11:08.986Z,100
2022-08-18T08:12:08.905Z,100
2022-08-18T08:13:09.932Z,100
2022-08-18T08:14:08.875Z,100
2022-08-18T08:15:08.903Z,100
2022-08-18T08:16:08.961Z,100
2022-08-18T08:17:08.878Z,100
2022-08-18T08:18:08.937Z,100
2022-08-18T08:19:11.300Z,100
2022-08-18T08:20:08.945Z,100
2022-08-18T08:21:08.944Z,100
2022-08-18T08:22:08.958Z,100
2022-08-18T08:23:08.967Z,100
2022-08-18T08:24:08.875Z,100
2022-08-18T08:25:28.334Z,100
2022-08-18T08:26:09.106Z,100
2022-08-18T08:27:08.990Z,100
2022-08-18T08:28:08.906Z,100
2022-08-18T08:29:09.005Z,100
2022-08-18T08:30:08.886Z,100
2022-08-18T08:31:33.286Z,100
2022-08-18T08:32:08.886Z,100
2022-08-18T08:33:08.939Z,100
2022-08-18T08:34:08.935Z,100
2022-08-18T08:35:14.060Z,100
2022-08-18T08:36:08.943Z,100
2022-08-18T08:37:08.894Z,100
2022-08-18T08:38:38.758Z,100
2022-08-18T08:39:08.964Z,100
2022-08-18T08:40:09.045Z,100
2022-08-18T08:41:09.003Z,100
2022-08-18T08:42:30.382Z,100
2022-08-18T08:43:09.003Z,100
2022-08-18T08:44:08.929Z,100
2022-08-18T08:45:08.922Z,100
2022-08-18T08:46:08.927Z,100
2022-08-18T08:47:08.953Z,100
2022-08-18T08:48:09.813Z,100
2022-08-18T08:49:09.042Z,100
2022-08-18T08:50:08.977Z,100
2022-08-18T08:51:08.894Z,100
2022-08-18T08:52:08.961Z,100
2022-08-18T08:53:08.956Z,100
2022-08-18T08:54:09.017Z,100
2022-08-18T08:55:08.967Z,100
2022-08-18T08:56:08.973Z,100
2022-08-18T08:57:09.006Z,100
2022-08-18T08:58:08.981Z,100
2022-08-18T08:59:08.908Z,100
2022-08-18T09:00:09.001Z,100
2022-08-18T09:01:08.896Z,100
2022-08-18T09:02:08.989Z,100
2022-08-18T09:03:08.943Z,100
2022-08-18T09:04:08.946Z,100
2022-08-18T09:05:09.839Z,100
2022-08-18T09:06:08.886Z,100
2022-08-18T09:07:08.942Z,100
2022-08-18T09:08:08.892Z,100
2022-08-18T09:09:08.898Z,100
2022-08-18T09:10:08.941Z,100
2022-08-18T09:11:08.982Z,100
2022-08-18T09:12:08.982Z,100
2022-08-18T09:13:08.998Z,100
2022-08-18T09:14:08.992Z,100
2022-08-18T09:15:08.906Z,100
2022-08-18T09:16:13.447Z,100
2022-08-18T09:17:08.934Z,100
2022-08-18T09:18:08.911Z,100
2022-08-18T09:19:08.934Z,100
2022-08-18T09:20:08.943Z,100
2022-08-18T09:21:08.910Z,100
2022-08-18T09:22:08.943Z,100
2022-08-18T09:23:08.952Z,100
2022-08-18T09:24:08.974Z,100
2022-08-18T09:25:08.961Z,100
2022-08-18T09:26:08.961Z,100
2022-08-18T09:27:08.961Z,100
2022-08-18T09:28:11.503Z,100
2022-08-18T09:29:09.002Z,100
2022-08-18T09:30:08.906Z,100
2022-08-18T09:31:09.260Z,100
2022-08-18T09:32:11.605Z,100
2022-08-18T09:33:18.844Z,100
2022-08-18T09:34:10.890Z,100
2022-08-18T09:35:08.904Z,100
2022-08-18T09:36:10.318Z,100
2022-08-18T09:37:08.934Z,100
2022-08-18T09:38:09.054Z,100
2022-08-18T09:39:09.056Z,100
2022-08-18T09:40:10.982Z,100
2022-08-18T09:41:08.927Z,100
2022-08-18T09:42:08.964Z,100
2022-08-18T09:43:09.141Z,100
2022-08-18T09:44:08.897Z,100
2022-08-18T09:45:08.991Z,100
2022-08-18T09:46:08.991Z,100
2022-08-18T09:47:09.013Z,100
2022-08-18T09:48:10.477Z,100
2022-08-18T09:49:09.011Z,100
2022-08-18T09:50:20.536Z,100
2022-08-18T09:51:08.959Z,100
2022-08-18T09:52:09.041Z,100
2022-08-18T09:53:09.040Z,100
2022-08-18T09:54:08.941Z,100
2022-08-18T09:55:08.970Z,100
2022-08-18T09:56:08.909Z,100
2022-08-18T09:57:08.970Z,100
2022-08-18T09:58:08.916Z,100
2022-08-18T09:59:10.770Z,100
2022-08-18T10:00:09.011Z,100
2022-08-18T10:01:09.006Z,100
2022-08-18T10:02:14.152Z,100
2022-08-18T10:03:08.989Z,100
2022-08-18T10:04:09.003Z,100
2022-08-18T10:05:09.108Z,100
2022-08-18T10:06:12.453Z,100
2022-08-18T10:07:09.026Z,100
2022-08-18T10:08:08.920Z,100
2022-08-18T10:10:56.957Z,100
2022-08-18T10:11:10.158Z,100
2022-08-18T10:12:08.960Z,100
2022-08-18T10:13:08.941Z,100
2022-08-18T10:14:09.638Z,100
2022-08-18T10:15:08.903Z,100
2022-08-18T10:16:10.956Z,100
2022-08-18T10:17:23.566Z,100
2022-08-18T10:18:08.988Z,100
2022-08-18T10:19:08.910Z,100
2022-08-18T10:20:09.003Z,100
2022-08-18T10:21:09.016Z,100
2022-08-18T10:22:08.932Z,100
2022-08-18T10:23:08.916Z,100
2022-08-18T10:25:21.310Z,100
2022-08-18T10:26:13.372Z,100
2022-08-18T10:27:09.067Z,100
2022-08-18T10:28:08.941Z,100
2022-08-18T10:29:08.954Z,100
2022-08-18T10:30:10.075Z,100
2022-08-18T10:31:10.130Z,100
2022-08-18T10:32:08.977Z,100
2022-08-18T10:33:17.806Z,100
2022-08-18T10:34:17.055Z,100
2022-08-18T10:35:08.926Z,100
2022-08-18T10:36:11.267Z,100
2022-08-18T10:37:08.907Z,100
2022-08-18T10:38:08.918Z,100
2022-08-18T10:39:08.918Z,100
2022-08-18T10:40:08.995Z,100
2022-08-18T10:42:11.245Z,100
2022-08-18T10:43:34.291Z,100
2022-08-18T10:44:27.807Z,100
2022-08-18T10:45:09.421Z,100
2022-08-18T10:46:25.438Z,100
2022-08-18T10:48:16.633Z,98.6
2022-08-18T10:49:08.992Z,98.8
2022-08-18T10:50:08.989Z,100
2022-08-18T10:51:09.001Z,99.2
2022-08-18T10:52:08.900Z,99.3
2022-08-18T10:53:38.844Z,98.5
2022-08-18T10:54:08.932Z,98.5
2022-08-18T10:56:09.036Z,94.8
2022-08-18T10:57:08.935Z,92.5
2022-08-18T10:58:08.949Z,92.3
2022-08-18T10:59:16.274Z,92.7
2022-08-18T11:01:08.929Z,92.9
2022-08-18T11:02:08.971Z,92.1
2022-08-18T11:03:39.621Z,92.8
2022-08-18T11:04:14.060Z,94.3
2022-08-18T11:05:08.919Z,95
2022-08-18T11:06:18.029Z,95.3
2022-08-18T11:07:08.994Z,96.1
2022-08-18T11:08:16.061Z,98
2022-08-18T11:09:09.026Z,97
2022-08-18T11:12:09.037Z,99.3
2022-08-18T11:13:10.537Z,100
2022-08-18T11:14:09.075Z,100
2022-08-18T11:15:23.132Z,100
2022-08-18T11:16:10.131Z,100
2022-08-18T11:17:08.931Z,100
2022-08-18T11:18:10.406Z,100
2022-08-18T11:19:08.975Z,100
2022-08-18T11:20:09.066Z,100
2022-08-18T11:21:12.609Z,100
2022-08-18T11:22:09.024Z,98.9
2022-08-18T11:23:08.996Z,100
2022-08-18T11:24:09.873Z,97.8
2022-08-18T11:25:09.001Z,96
2022-08-18T11:26:09.025Z,96.9
2022-08-18T11:28:08.921Z,93.5
2022-08-18T11:29:08.917Z,93.6
2022-08-18T11:30:09.183Z,93
2022-08-18T11:31:08.957Z,92
2022-08-18T11:32:10.967Z,90.9
2022-08-18T11:33:08.968Z,91.9
2022-08-18T11:34:08.968Z,92.9
2022-08-18T11:35:08.968Z,93.8
2022-08-18T11:36:09.081Z,92.3
2022-08-18T11:37:09.276Z,92
2022-08-18T11:38:12.442Z,90.3
2022-08-18T11:39:08.988Z,90.9
2022-08-18T11:40:09.708Z,87.6
2022-08-18T11:42:08.930Z,89.9
2022-08-18T11:43:09.028Z,89.2
2022-08-18T11:44:09.030Z,89.2
2022-08-18T11:45:09.064Z,85
2022-08-18T11:46:09.001Z,85.3
2022-08-18T11:47:08.955Z,83.9
2022-08-18T11:48:08.965Z,81.4
2022-08-18T11:49:08.938Z,76.9
2022-08-18T11:50:08.969Z,75.1
2022-08-18T11:51:08.989Z,71.9
2022-08-18T11:52:08.988Z,71.3
2022-08-18T11:53:08.994Z,68.1
2022-08-18T11:54:08.993Z,66
2022-08-18T11:55:16.526Z,66.6
2022-08-18T11:56:13.297Z,66.7
2022-08-18T11:57:10.072Z,67
2022-08-18T11:59:08.986Z,67.9
2022-08-18T12:00:09.032Z,67.5
2022-08-18T12:01:09.036Z,66.2
2022-08-18T12:02:08.934Z,67.3
2022-08-18T12:03:08.947Z,65.7
2022-08-18T12:04:08.937Z,63.2
2022-08-18T12:05:09.070Z,61
2022-08-18T12:06:08.955Z,60.4
2022-08-18T12:07:08.930Z,59.4
2022-08-18T12:08:11.258Z,60.4
2022-08-18T12:09:08.995Z,61.6
2022-08-18T12:10:16.236Z,64.8
2022-08-18T12:12:08.947Z,72.6
2022-08-18T12:13:09.013Z,74
2022-08-18T12:14:31.187Z,75.8
2022-08-18T12:15:17.126Z,75.5
2022-08-18T12:16:09.031Z,76.2
2022-08-18T12:17:09.031Z,75.2
2022-08-18T12:18:09.042Z,77.5
2022-08-18T12:19:10.438Z,79.5
2022-08-18T12:20:09.084Z,77.1
2022-08-18T12:21:08.927Z,79.3
2022-08-18T12:22:11.953Z,78
2022-08-18T12:23:08.968Z,80.1
2022-08-18T12:24:08.972Z,80.2
2022-08-18T12:26:27.219Z,80.6
2022-08-18T12:27:20.884Z,79.5
2022-08-18T12:28:10.926Z,78.5
2022-08-18T12:29:11.137Z,77.6
2022-08-18T12:30:09.052Z,75.8
2022-08-18T12:31:17.018Z,74.2
2022-08-18T12:32:17.792Z,74.1
2022-08-18T12:33:12.264Z,74.3
2022-08-18T12:34:08.957Z,73.7
2022-08-18T12:35:09.485Z,70.7
2022-08-18T12:36:09.706Z,71.8
2022-08-18T12:37:42.940Z,71.7
2022-08-18T12:38:13.820Z,72.6
2022-08-18T12:39:08.976Z,70.8
2022-08-18T12:40:09.121Z,69.3
2022-08-18T12:41:09.194Z,70.1
2022-08-18T12:42:08.946Z,72.5
2022-08-18T12:43:09.015Z,74.5
2022-08-18T12:44:09.922Z,72.8
2022-08-18T12:45:09.028Z,71.4
2022-08-18T12:46:08.933Z,69.9
2022-08-18T12:47:09.003Z,68.9
2022-08-18T12:48:09.041Z,70
2022-08-18T12:49:09.036Z,70.4
2022-08-18T12:50:09.055Z,71.7
2022-08-18T12:51:08.954Z,70.5
2022-08-18T12:52:08.946Z,68.6
2022-08-18T12:53:08.973Z,68.9
2022-08-18T12:54:10.389Z,70.4
2022-08-18T12:55:10.329Z,70.9
2022-08-18T12:56:10.700Z,69.9
2022-08-18T12:57:09.043Z,69.1
2022-08-18T12:58:08.962Z,67.9
2022-08-18T12:59:08.943Z,67.2
2022-08-18T13:00:09.018Z,68.5
2022-08-18T13:01:09.066Z,68.4
2022-08-18T13:02:09.005Z,68.5
2022-08-18T13:03:09.031Z,67.6
2022-08-18T13:04:12.477Z,68
2022-08-18T13:05:09.046Z,67
2022-08-18T13:06:09.049Z,67.6
2022-08-18T13:07:09.067Z,67.7
2022-08-18T13:08:09.066Z,66.9
2022-08-18T13:09:16.619Z,66.4
2022-08-18T13:10:08.959Z,66.4
2022-08-18T13:11:10.425Z,65.7
2022-08-18T13:12:14.163Z,65.6
2022-08-18T13:13:09.004Z,67.7
2022-08-18T13:14:09.193Z,67.7
2022-08-18T13:15:09.108Z,68.5
2022-08-18T13:16:09.011Z,69.8
2022-08-18T13:17:13.112Z,68.8
2022-08-18T13:18:09.029Z,68.3
2022-08-18T13:19:10.716Z,67.2
2022-08-18T13:20:09.055Z,66.4
2022-08-18T13:21:08.973Z,64.4
2022-08-18T13:22:08.991Z,65.3
2022-08-18T13:23:08.973Z,66.3
2022-08-18T13:24:09.488Z,64.3
2022-08-18T13:25:08.965Z,63
2022-08-18T13:26:08.977Z,61.5
2022-08-18T13:27:13.578Z,58.2
2022-08-18T13:28:08.981Z,57.9
2022-08-18T13:29:10.240Z,57.6
2022-08-18T13:30:29.516Z,58.8
2022-08-18T13:31:09.011Z,59.3
2022-08-18T13:32:08.958Z,62.3
2022-08-18T13:33:35.181Z,60.5
2022-08-18T13:34:12.689Z,60
2022-08-18T13:35:13.513Z,59
2022-08-18T13:36:08.996Z,57.5
2022-08-18T13:37:09.017Z,56.2
2022-08-18T13:38:15.723Z,56.2
2022-08-18T13:39:08.954Z,56
2022-08-18T13:40:09.122Z,57.1
2022-08-18T13:41:09.018Z,58.5
2022-08-18T13:42:28.397Z,59.5
2022-08-18T13:43:09.379Z,58.7
2022-08-18T13:44:08.981Z,57.6
2022-08-18T13:45:22.882Z,57.9
2022-08-18T13:46:09.104Z,58.2
2022-08-18T13:47:08.957Z,59.1
2022-08-18T13:48:08.946Z,58.5
2022-08-18T13:49:08.964Z,59.5
2022-08-18T13:50:11.591Z,58.5
2022-08-18T13:51:08.969Z,57.6
2022-08-18T13:52:16.837Z,55.6
2022-08-18T13:54:29.748Z,52.8
2022-08-18T13:55:13.555Z,51.4